Time;durP1;ratioP1;P1;durP2;ratioP2;P2;SDS_P1;SDS_P2;PMS_P1;PMS_P2;Temp;Humidity;BMP_temperature;BMP_pressure;BME280_temperature;BME280_humidity;BME280_pressure;Samples;Min_cycle;Max_cycle;Signal;HPM_P1;HPM_P2
2023/03/20 00:00:27;;;;;;;39.53;21.27;;;;;;;6.05;100.00;98413.84;2535728;29;20412;-84
2023/03/20 00:02:05;;;;;;;36.17;19.45;;;;;;;6.06;100.00;98412.97;2535771;29;20454;-80
2023/03/20 00:03:21;;;;;;;38.35;20.20;;;;;;;6.20;100.00;98410.25;2535615;29;20423;-80
2023/03/20 00:04:37;;;;;;;35.42;20.33;;;;;;;6.26;100.00;98410.16;2535944;29;20371;-80
2023/03/20 00:05:52;;;;;;;33.88;19.38;;;;;;;6.34;100.00;98408.34;2535824;29;20135;-80
2023/03/20 00:07:11;;;;;;;39.25;21.38;;;;;;;6.20;100.00;98415.44;2535948;29;20080;-82
2023/03/20 00:08:27;;;;;;;33.78;19.02;;;;;;;6.13;100.00;98417.25;2535735;29;20060;-79
2023/03/20 00:09:42;;;;;;;37.83;19.83;;;;;;;6.16;100.00;98416.38;2535965;29;20052;-80
2023/03/20 00:10:58;;;;;;;34.15;19.52;;;;;;;6.34;100.00;98415.28;2535896;29;20060;-80
2023/03/20 00:12:20;;;;;;;32.33;19.60;;;;;;;6.24;100.00;98419.72;2535768;29;20111;-80
2023/03/20 00:13:36;;;;;;;36.85;20.17;;;;;;;6.17;100.00;98421.53;2535640;29;20060;-80
2023/03/20 00:14:52;;;;;;;34.45;19.58;;;;;;;6.12;100.00;98430.25;2535597;29;20048;-82
2023/03/20 00:16:10;;;;;;;34.83;19.45;;;;;;;5.90;100.00;98433.03;2535436;29;20060;-81
2023/03/20 00:17:26;;;;;;;35.63;18.55;;;;;;;5.82;100.00;98429.63;2535479;29;20075;-80
2023/03/20 00:18:41;;;;;;;33.92;19.85;;;;;;;5.97;100.00;98432.09;2535664;29;20056;-80
2023/03/20 00:19:57;;;;;;;29.27;18.63;;;;;;;6.10;100.00;98432.88;2535873;29;20423;-80
2023/03/20 00:21:18;;;;;;;36.10;18.95;;;;;;;6.38;100.00;98431.72;2535753;29;20494;-83
2023/03/20 00:22:34;;;;;;;34.80;18.50;;;;;;;6.46;100.00;98419.50;2535887;29;20055;-80
2023/03/20 00:23:50;;;;;;;34.15;18.63;;;;;;;6.45;100.00;98428.19;2535221;29;20221;-80
2023/03/20 00:25:06;;;;;;;32.92;17.58;;;;;;;6.15;100.00;98420.69;2535810;29;20064;-82
2023/03/20 00:26:29;;;;;;;30.17;16.40;;;;;;;5.70;100.00;98430.63;2535704;29;20178;-80
2023/03/20 00:27:45;;;;;;;30.23;17.90;;;;;;;5.70;100.00;98431.47;2535628;29;20052;-80
2023/03/20 00:29:03;;;;;;;30.55;16.65;;;;;;;5.64;100.00;98427.19;2535517;29;20147;-80
2023/03/20 00:30:28;;;;;;;32.30;17.70;;;;;;;5.65;100.00;98434.09;2524951;29;20476;-81
2023/03/20 00:31:44;;;;;;;32.15;16.50;;;;;;;5.50;100.00;98434.22;2530747;29;20472;-81
2023/03/20 00:33:00;;;;;;;32.38;18.38;;;;;;;5.26;100.00;98430.06;2535398;29;20394;-81
2023/03/20 00:34:18;;;;;;;35.92;19.35;;;;;;;5.26;100.00;98430.94;2535625;29;20523;-80
2023/03/20 00:35:34;;;;;;;35.90;19.35;;;;;;;5.32;100.00;98427.44;2535578;29;20622;-80
2023/03/20 00:36:50;;;;;;;36.58;19.35;;;;;;;5.21;100.00;98422.31;2535929;29;20048;-80
2023/03/20 00:38:07;;;;;;;34.78;19.85;;;;;;;4.90;100.00;98420.78;2535602;29;20052;-80
2023/03/20 00:39:23;;;;;;;36.08;20.27;;;;;;;5.25;100.00;98423.16;2535388;29;20052;-81
2023/03/20 00:40:38;;;;;;;39.15;19.48;;;;;;;5.13;100.00;98430.16;2535830;29;20052;-80
2023/03/20 00:42:00;;;;;;;34.15;19.33;;;;;;;4.85;100.00;98430.31;2535759;29;20143;-81
2023/03/20 00:43:16;;;;;;;39.03;19.95;;;;;;;5.04;100.00;98433.66;2535215;29;20052;-81
2023/03/20 00:44:38;;;;;;;36.72;19.10;;;;;;;5.03;100.00;98425.88;2535528;29;20048;-80
2023/03/20 00:45:53;;;;;;;32.70;18.42;;;;;;;5.21;100.00;98435.28;2535414;29;20131;-80
2023/03/20 00:47:17;;;;;;;33.92;19.05;;;;;;;5.35;100.00;98430.03;2535717;29;20048;-80
2023/03/20 00:48:33;;;;;;;34.13;19.20;;;;;;;5.67;100.00;98428.91;2535661;29;20056;-82
2023/03/20 00:49:51;;;;;;;42.17;19.38;;;;;;;4.98;100.00;98425.06;2535642;29;20052;-80
2023/03/20 00:51:06;;;;;;;36.50;20.10;;;;;;;4.76;100.00;98426.03;2535697;29;20512;-80
2023/03/20 00:52:23;;;;;;;35.03;19.55;;;;;;;4.72;100.00;98426.03;2535708;29;20068;-80
2023/03/20 00:53:39;;;;;;;40.53;21.52;;;;;;;4.89;100.00;98418.19;2535667;29;20064;-80
2023/03/20 00:54:55;;;;;;;41.30;20.85;;;;;;;4.97;100.00;98428.53;2535571;29;20047;-80
2023/03/20 00:56:30;;;;;;;39.40;21.42;;;;;;;5.18;100.00;98428.41;2535347;29;20052;-80
2023/03/20 00:58:00;;;;;;;40.10;20.63;;;;;;;5.00;100.00;98431.09;2534992;29;20567;-81
2023/03/20 00:59:19;;;;;;;41.33;21.45;;;;;;;5.41;100.00;98424.75;2535559;29;20477;-86
2023/03/20 01:00:43;;;;;;;37.50;21.40;;;;;;;5.34;100.00;98425.69;2535528;29;20415;-87
2023/03/20 01:02:01;;;;;;;37.20;20.98;;;;;;;5.60;100.00;98425.50;2535542;29;20110;-80
2023/03/20 01:03:22;;;;;;;35.67;19.92;;;;;;;5.59;100.00;98423.78;2535575;29;20061;-84
2023/03/20 01:04:41;;;;;;;36.65;19.98;;;;;;;5.75;100.00;98427.13;2537110;29;20559;-81
2023/03/20 01:05:56;;;;;;;34.35;18.92;;;;;;;5.65;100.00;98425.47;2537066;29;20055;-84
2023/03/20 01:07:13;;;;;;;34.92;19.17;;;;;;;5.26;100.00;98435.25;2537321;29;20056;-82
2023/03/20 01:08:29;;;;;;;33.75;19.08;;;;;;;5.19;100.00;98426.66;2537205;29;20079;-81
2023/03/20 01:09:46;;;;;;;32.90;18.48;;;;;;;5.25;100.00;98424.03;2537546;29;20060;-80
2023/03/20 01:11:01;;;;;;;33.78;19.30;;;;;;;5.35;100.00;98419.63;2537013;29;20063;-80
2023/03/20 01:12:17;;;;;;;29.48;17.33;;;;;;;5.27;100.00;98422.28;2537041;29;20048;-80
2023/03/20 01:13:33;;;;;;;36.30;19.15;;;;;;;5.31;100.00;98428.31;2537275;29;20056;-81
2023/03/20 01:14:53;;;;;;;34.13;18.02;;;;;;;5.35;100.00;98424.81;2537076;29;20063;-81
2023/03/20 01:16:21;;;;;;;30.02;17.20;;;;;;;4.81;100.00;98423.41;2537291;29;20062;-81
2023/03/20 01:17:37;;;;;;;29.63;16.83;;;;;;;4.72;100.00;98423.44;2537168;29;20868;-83
2023/03/20 01:18:53;;;;;;;33.13;17.95;;;;;;;4.86;100.00;98426.84;2537057;29;20055;-80
2023/03/20 01:20:35;;;;;;;34.75;18.48;;;;;;;4.86;100.00;98423.41;2537298;29;20052;-81
2023/03/20 01:21:51;;;;;;;33.00;17.63;;;;;;;4.87;100.00;98418.19;2532998;29;20056;-81
2023/03/20 01:23:06;;;;;;;30.88;17.30;;;;;;;4.99;100.00;98429.38;2537192;29;20110;-82
2023/03/20 01:24:22;;;;;;;30.13;17.02;;;;;;;5.07;100.00;98420.66;2537076;29;20056;-82
2023/03/20 01:25:38;;;;;;;34.42;19.35;;;;;;;5.13;100.00;98419.75;2537018;29;20056;-81
2023/03/20 01:26:55;;;;;;;44.08;20.63;;;;;;;4.93;100.00;98418.16;2537193;29;20113;-80
2023/03/20 01:28:17;;;;;;;39.33;20.02;;;;;;;5.07;100.00;98415.47;2537099;29;20051;-80
2023/03/20 01:29:33;;;;;;;37.28;19.55;;;;;;;5.20;100.00;98420.59;2537149;29;20191;-81
2023/03/20 01:30:49;;;;;;;33.10;18.70;;;;;;;5.18;100.00;98425.81;2536883;29;20059;-81
2023/03/20 01:32:11;;;;;;;34.40;18.92;;;;;;;5.22;100.00;98422.31;2537315;29;20071;-80
2023/03/20 01:33:28;;;;;;;32.88;18.05;;;;;;;5.12;100.00;98418.03;2536882;29;20064;-80
2023/03/20 01:34:44;;;;;;;31.88;17.08;;;;;;;4.84;100.00;98420.78;2536917;29;20056;-84
2023/03/20 01:35:59;;;;;;;35.63;17.98;;;;;;;4.94;100.00;98421.59;2536875;29;20048;-81
2023/03/20 01:37:22;;;;;;;34.55;18.20;;;;;;;4.83;100.00;98421.66;2536869;29;20499;-80
2023/03/20 01:38:39;;;;;;;34.05;17.67;;;;;;;5.13;100.00;98414.56;2537211;29;20171;-81
2023/03/20 01:39:56;;;;;;;35.08;18.63;;;;;;;5.04;100.00;98419.84;2536322;29;20443;-88
2023/03/20 01:41:15;;;;;;;32.35;17.92;;;;;;;5.15;100.00;98417.16;2536446;29;20091;-81
2023/03/20 01:42:32;;;;;;;32.05;17.45;;;;;;;4.89;100.00;98416.47;2537012;29;20115;-81
2023/03/20 01:43:47;;;;;;;32.95;17.50;;;;;;;4.60;100.00;98416.59;2536758;29;20056;-81
2023/03/20 01:45:15;;;;;;;31.48;17.08;;;;;;;4.42;100.00;98414.94;2536761;29;20067;-82
2023/03/20 01:46:31;;;;;;;29.52;16.42;;;;;;;4.40;100.00;98422.72;2537143;29;20945;-81
2023/03/20 01:47:47;;;;;;;31.27;17.95;;;;;;;4.57;100.00;98416.63;2537131;29;20055;-80
2023/03/20 01:49:28;;;;;;;32.70;17.45;;;;;;;4.81;100.00;98416.47;2536849;29;20519;-81
2023/03/20 01:50:44;;;;;;;32.95;17.70;;;;;;;4.82;100.00;98417.34;2507040;29;20053;-87
2023/03/20 01:51:59;;;;;;;31.80;17.15;;;;;;;4.31;100.00;98418.41;2536849;29;20150;-81
2023/03/20 01:53:21;;;;;;;35.90;19.52;;;;;;;4.46;100.00;98422.69;2536909;29;20052;-80
2023/03/20 01:54:38;;;;;;;36.42;19.17;;;;;;;4.50;100.00;98420.97;2536783;29;20052;-81
2023/03/20 01:55:59;;;;;;;35.97;18.70;;;;;;;4.36;100.00;98416.69;2536880;29;20662;-80
2023/03/20 01:57:19;;;;;;;33.30;18.25;;;;;;;4.30;100.00;98416.69;2536887;29;20079;-80
2023/03/20 01:58:40;;;;;;;33.55;18.50;;;;;;;4.24;100.00;98416.72;2537163;29;20151;-81
2023/03/20 02:00:12;;;;;;;33.08;17.75;;;;;;;3.87;100.00;98422.84;2536595;29;20044;-84
2023/03/20 02:01:29;;;;;;;35.13;18.65;;;;;;;3.96;100.00;98415.03;2536810;29;20056;-83
2023/03/20 02:02:46;;;;;;;39.30;20.13;;;;;;;4.09;100.00;98413.31;2536191;29;20059;-79
2023/03/20 02:04:02;;;;;;;36.08;18.95;;;;;;;4.01;100.00;98420.22;2536555;29;20492;-83
2023/03/20 02:05:21;;;;;;;33.88;18.08;;;;;;;4.07;100.00;98414.16;2536893;29;20067;-80
2023/03/20 02:06:37;;;;;;;34.45;18.95;;;;;;;4.10;100.00;98419.34;2536569;29;20542;-83
2023/03/20 02:08:10;;;;;;;35.00;19.83;;;;;;;4.14;100.00;98415.88;2536898;29;20645;-79
2023/03/20 02:09:26;;;;;;;34.95;20.10;;;;;;;4.10;100.00;98415.03;2536684;29;20056;-80
2023/03/20 02:10:44;;;;;;;42.88;20.27;;;;;;;4.17;100.00;98413.28;2536676;29;20155;-83
2023/03/20 02:12:01;;;;;;;37.65;20.45;;;;;;;4.30;100.00;98421.88;2526016;29;20053;-80
2023/03/20 02:13:17;;;;;;;37.95;20.27;;;;;;;4.19;100.00;98421.03;2530424;29;20155;-80
2023/03/20 02:14:32;;;;;;;33.10;19.40;;;;;;;4.35;100.00;98419.28;2536670;29;20044;-80
2023/03/20 02:16:00;;;;;;;35.30;19.95;;;;;;;4.50;100.00;98413.19;2536307;29;20091;-84
2023/03/20 02:17:16;;;;;;;33.90;19.00;;;;;;;4.44;100.00;98414.06;2536456;29;20048;-80
2023/03/20 02:18:33;;;;;;;33.70;17.48;;;;;;;4.57;100.00;98417.47;2536320;29;20044;-80
2023/03/20 02:20:15;;;;;;;32.78;17.70;;;;;;;4.32;100.00;98421.88;2536737;29;20507;-80
2023/03/20 02:21:49;;;;;;;32.75;17.58;;;;;;;4.10;100.00;98415.03;2536579;29;20067;-80
2023/03/20 02:23:28;;;;;;;35.00;18.35;;;;;;;4.17;100.00;98412.41;2536260;29;20203;-82
2023/03/20 02:25:17;;;;;;;32.90;18.73;;;;;;;3.90;100.00;98414.19;2536562;29;20141;-81
2023/03/20 02:26:39;;;;;;;30.70;17.48;;;;;;;4.07;100.00;98415.03;2536821;29;20086;-84
2023/03/20 02:28:13;;;;;;;38.10;18.83;;;;;;;4.16;100.00;98410.69;2536910;29;20403;-83
2023/03/20 02:29:53;;;;;;;32.42;18.13;;;;;;;4.40;100.00;98412.38;2536549;29;20064;-82
2023/03/20 02:31:26;;;;;;;33.17;17.27;;;;;;;4.38;100.00;98420.13;2536310;29;20060;-82
2023/03/20 02:33:23;;;;;;;31.67;17.25;;;;;;;4.45;100.00;98420.97;2536755;29;20048;-82
2023/03/20 02:35:00;;;;;;;28.40;16.40;;;;;;;4.47;100.00;98410.56;2536311;29;20048;-82
2023/03/20 02:36:56;;;;;;;30.17;16.58;;;;;;;4.52;100.00;98411.44;2536194;29;20511;-82
2023/03/20 02:38:34;;;;;;;27.48;16.25;;;;;;;4.53;100.00;98415.75;2536558;29;20052;-82
2023/03/20 02:40:07;;;;;;;31.05;15.52;;;;;;;4.45;100.00;98420.09;2536256;29;20062;-81
2023/03/20 02:41:41;;;;;;;32.65;15.98;;;;;;;4.47;100.00;98421.81;2536649;29;20139;-82
2023/03/20 02:43:10;;;;;;;28.23;15.40;;;;;;;4.48;100.00;98417.50;2536018;29;20413;-82
2023/03/20 02:44:35;;;;;;;27.33;15.23;;;;;;;4.48;100.00;98417.50;2536869;29;20625;-81
2023/03/20 02:46:09;;;;;;;26.98;15.40;;;;;;;4.33;100.00;98419.28;2536278;29;20062;-82
2023/03/20 02:47:40;;;;;;;34.17;15.95;;;;;;;4.25;100.00;98413.25;2536443;29;20529;-82
2023/03/20 02:49:02;;;;;;;27.00;15.23;;;;;;;4.31;100.00;98409.78;2536634;29;20056;-81
2023/03/20 02:50:46;;;;;;;27.67;16.10;;;;;;;4.37;100.00;98409.75;2536677;29;20083;-82
2023/03/20 02:52:17;;;;;;;26.50;14.80;;;;;;;4.46;100.00;98412.31;2536315;29;20052;-83
2023/03/20 02:53:58;;;;;;;29.65;16.48;;;;;;;4.28;100.00;98418.44;2536010;29;20055;-81
2023/03/20 02:55:32;;;;;;;29.27;16.33;;;;;;;3.80;100.00;98421.09;2536547;29;20052;-81
2023/03/20 02:57:06;;;;;;;30.70;16.90;;;;;;;4.00;100.00;98417.66;2536156;29;20083;-82
2023/03/20 02:58:29;;;;;;;28.40;17.02;;;;;;;4.47;100.00;98416.63;2536390;29;20345;-83
2023/03/20 03:00:12;;;;;;;32.95;18.15;;;;;;;4.30;100.00;98418.44;2536828;29;20776;-81
2023/03/20 03:01:51;;;;;;;32.40;17.85;;;;;;;4.37;100.00;98410.63;2536628;29;20147;-86
2023/03/20 03:03:12;;;;;;;34.50;19.13;;;;;;;4.64;100.00;98413.09;2536270;29;20621;-82
2023/03/20 03:04:33;;;;;;;36.30;20.10;;;;;;;4.61;100.00;98416.59;2536006;29;20080;-86
2023/03/20 03:05:55;;;;;;;33.05;19.25;;;;;;;4.81;100.00;98418.22;2536343;29;20139;-82
2023/03/20 03:07:12;;;;;;;35.13;18.33;;;;;;;4.73;100.00;98414.78;2536611;29;20409;-81
2023/03/20 03:08:36;;;;;;;38.97;19.90;;;;;;;4.57;100.00;98420.06;2536127;29;20547;-81
2023/03/20 03:09:57;;;;;;;41.15;20.73;;;;;;;4.41;100.00;98418.38;2536372;29;20051;-81
2023/03/20 03:11:12;;;;;;;41.67;19.88;;;;;;;4.37;100.00;98423.59;2536320;29;20052;-82
2023/03/20 03:12:36;;;;;;;46.00;22.58;;;;;;;4.73;100.00;98419.97;2536285;29;20060;-81
2023/03/20 03:13:55;;;;;;;43.40;22.05;;;;;;;4.71;100.00;98422.59;2536092;29;20549;-81
2023/03/20 03:15:21;;;;;;;48.05;22.98;;;;;;;4.67;100.00;98420.88;2536219;29;20925;-84
2023/03/20 03:16:39;;;;;;;44.40;22.42;;;;;;;4.77;100.00;98419.13;2536099;29;20062;-81
2023/03/20 03:17:58;;;;;;;49.30;23.65;;;;;;;4.79;100.00;98420.81;2536149;29;20526;-82
2023/03/20 03:19:27;;;;;;;51.28;23.73;;;;;;;4.88;100.00;98421.66;2536279;29;20067;-81
2023/03/20 03:20:45;;;;;;;56.00;24.05;;;;;;;5.03;100.00;98429.34;2536073;29;20523;-81
2023/03/20 03:22:01;;;;;;;57.08;26.15;;;;;;;5.22;100.00;98422.31;2536301;29;20906;-82
2023/03/20 03:23:29;;;;;;;61.33;25.70;;;;;;;4.94;100.00;98425.06;2536110;29;20063;-82
2023/03/20 03:24:48;;;;;;;58.28;24.08;;;;;;;5.14;100.00;98428.44;2536112;29;20418;-87
2023/03/20 03:26:06;;;;;;;49.45;24.30;;;;;;;5.08;100.00;98427.56;2536190;29;20411;-82
2023/03/20 03:27:27;;;;;;;59.03;24.38;;;;;;;5.17;100.00;98423.22;2535425;29;20052;-82
2023/03/20 03:28:47;;;;;;;60.75;24.42;;;;;;;4.93;100.00;98427.66;2536014;29;20167;-81
2023/03/20 03:30:30;;;;;;;46.92;24.75;;;;;;;5.20;100.00;98431.84;2525451;29;20053;-83
2023/03/20 03:31:46;;;;;;;58.00;24.10;;;;;;;5.05;100.00;98431.94;2533407;29;20059;-87
2023/03/20 03:33:10;;;;;;;51.25;23.95;;;;;;;5.14;100.00;98433.63;2535964;29;20147;-82
2023/03/20 03:34:26;;;;;;;69.63;24.63;;;;;;;5.26;100.00;98433.53;2537115;29;20099;-84
2023/03/20 03:35:44;;;;;;;107.38;30.20;;;;;;;5.42;100.00;98434.28;2535828;29;20118;-80
2023/03/20 03:37:09;;;;;;;81.30;27.55;;;;;;;5.49;100.00;98435.09;2535465;29;20080;-83
2023/03/20 03:38:53;;;;;;;88.38;27.83;;;;;;;5.54;100.00;98433.34;2536095;29;20551;-82
2023/03/20 03:40:19;;;;;;;;;;;;;;;5.64;100.00;98429.78;2536391;29;20518;-79
2023/03/20 03:41:47;;;;;;;61.38;23.55;;;;;;;5.70;100.00;98430.63;2535464;29;20082;-80
2023/03/20 03:43:07;;;;;;;72.05;25.23;;;;;;;5.77;100.00;98429.69;2535057;29;20507;-83
2023/03/20 03:44:34;;;;;;;115.70;29.00;;;;;;;5.82;100.00;98429.63;2535426;29;20502;-80
2023/03/20 03:45:58;;;;;;;109.00;28.13;;;;;;;5.90;100.00;98436.47;2536026;29;20063;-81
2023/03/20 03:47:20;;;;;;;110.45;28.30;;;;;;;5.88;100.00;98434.81;2535575;29;20208;-82
2023/03/20 03:48:43;;;;;;;107.53;28.75;;;;;;;5.94;100.00;98435.59;2535741;29;20419;-88
2023/03/20 03:50:05;;;;;;;125.55;29.98;;;;;;;5.96;100.00;98435.56;2535513;29;20127;-86
2023/03/20 03:51:24;;;;;;;138.05;31.45;;;;;;;5.88;100.00;98433.03;2535209;29;20539;-84
2023/03/20 03:52:43;;;;;;;80.65;28.42;;;;;;;5.88;100.00;98434.81;2535435;29;20083;-80
2023/03/20 03:54:13;;;;;;;81.32;29.00;;;;;;;5.98;100.00;98430.38;2535720;29;20084;-80
2023/03/20 03:55:34;;;;;;;119.68;29.08;;;;;;;6.05;100.00;98434.66;2535689;29;20052;-80
2023/03/20 03:56:50;;;;;;;62.67;26.48;;;;;;;6.05;100.00;98437.25;2535618;29;20500;-80
2023/03/20 03:58:17;;;;;;;115.30;28.70;;;;;;;6.15;100.00;98430.25;2535379;29;20974;-80
2023/03/20 03:59:37;;;;;;;130.93;28.40;;;;;;;6.12;100.00;98438.94;2535937;29;20099;-80
2023/03/20 04:00:55;;;;;;;69.90;25.25;;;;;;;5.88;100.00;98440.00;2535602;29;20460;-81
2023/03/20 04:02:11;;;;;;;54.17;23.38;;;;;;;6.04;100.00;98441.59;2535635;29;20071;-83
2023/03/20 04:03:36;;;;;;;51.58;25.08;;;;;;;6.16;100.00;98442.38;2535464;29;20488;-80
2023/03/20 04:04:54;;;;;;;47.35;22.83;;;;;;;6.20;100.00;98439.69;2535768;29;20065;-80
2023/03/20 04:06:14;;;;;;;100.65;25.35;;;;;;;5.94;100.00;98445.13;2535478;29;20103;-80
2023/03/20 04:07:30;;;;;;;136.13;25.48;;;;;;;5.94;100.00;98445.13;2535724;29;20492;-81
2023/03/20 04:08:45;;;;;;;47.33;23.45;;;;;;;6.04;100.00;98452.00;2535782;29;20115;-81
2023/03/20 04:10:02;;;;;;;56.13;23.95;;;;;;;6.11;100.00;98442.41;2535491;29;20108;-79
2023/03/20 04:11:21;;;;;;;56.22;23.48;;;;;;;5.67;100.00;98451.44;2535615;29;20052;-81
2023/03/20 04:12:39;;;;;;;57.33;23.98;;;;;;;5.57;100.00;98450.63;2535424;29;20063;-81
2023/03/20 04:13:55;;;;;;;59.28;25.33;;;;;;;5.36;100.00;98447.31;2524633;29;20064;-81
2023/03/20 04:15:12;;;;;;;59.22;24.67;;;;;;;5.24;100.00;98448.28;2529387;29;20056;-81
2023/03/20 04:16:28;;;;;;;60.17;24.48;;;;;;;5.19;100.00;98445.69;2535924;29;20050;-83
2023/03/20 04:17:43;;;;;;;65.20;26.48;;;;;;;5.19;100.00;98443.09;2535783;29;20151;-82
2023/03/20 04:18:59;;;;;;;68.38;27.77;;;;;;;5.21;100.00;98443.06;2535135;29;20677;-81
2023/03/20 04:20:16;;;;;;;68.50;27.40;;;;;;;5.10;100.00;98440.56;2535334;29;20420;-82
2023/03/20 04:21:31;;;;;;;67.10;27.58;;;;;;;5.07;100.00;98436.22;2535807;29;20048;-81
2023/03/20 04:22:47;;;;;;;77.28;27.58;;;;;;;5.08;100.00;98437.09;2535577;29;20055;-80
2023/03/20 04:24:03;;;;;;;82.28;29.02;;;;;;;5.30;100.00;98440.44;2535307;29;20415;-80
2023/03/20 04:25:22;;;;;;;75.45;30.35;;;;;;;5.34;100.00;98443.88;2535388;29;20167;-81
2023/03/20 04:26:39;;;;;;;84.22;28.73;;;;;;;5.28;100.00;98436.97;2535738;29;20047;-84
2023/03/20 04:27:55;;;;;;;73.28;29.30;;;;;;;5.20;100.00;98447.41;2535368;29;20629;-80
2023/03/20 04:29:10;;;;;;;75.00;29.05;;;;;;;5.25;100.00;98442.22;2524570;29;20048;-80
2023/03/20 04:30:26;;;;;;;68.75;28.75;;;;;;;5.01;100.00;98441.47;2529202;29;20048;-84
2023/03/20 04:31:41;;;;;;;105.60;30.80;;;;;;;5.30;100.00;98447.34;2534918;29;20519;-82
2023/03/20 04:32:57;;;;;;;82.35;30.48;;;;;;;5.06;100.00;98447.47;2535075;29;20539;-82
2023/03/20 04:34:13;;;;;;;87.97;30.30;;;;;;;5.15;100.00;98449.16;2535057;29;20503;-82
2023/03/20 04:35:29;;;;;;;78.45;29.30;;;;;;;5.23;100.00;98451.72;2535844;29;20052;-82
2023/03/20 04:36:45;;;;;;;75.78;30.15;;;;;;;5.23;100.00;98442.19;2535826;29;20048;-82
2023/03/20 04:38:00;;;;;;;81.97;31.45;;;;;;;5.20;100.00;98441.34;2535865;29;20063;-82
2023/03/20 04:39:16;;;;;;;86.82;30.33;;;;;;;5.24;100.00;98437.88;2537106;29;20415;-81
2023/03/20 04:40:32;;;;;;;80.22;30.17;;;;;;;5.16;100.00;98444.84;2537161;29;20052;-83
2023/03/20 04:41:48;;;;;;;84.70;29.15;;;;;;;5.06;100.00;98441.44;2537302;29;20056;-81
2023/03/20 04:43:03;;;;;;;85.43;29.13;;;;;;;4.99;100.00;98444.94;2537155;29;20052;-84
2023/03/20 04:44:20;;;;;;;73.95;28.35;;;;;;;5.00;100.00;98441.47;2537400;29;20060;-82
2023/03/20 04:45:35;;;;;;;81.55;29.80;;;;;;;5.12;100.00;98444.00;2537373;29;20044;-81
2023/03/20 04:46:51;;;;;;;79.05;30.20;;;;;;;5.09;100.00;98446.63;2536106;29;20423;-81
2023/03/20 04:48:07;;;;;;;83.03;30.05;;;;;;;5.09;100.00;98434.47;2536572;29;20056;-85
2023/03/20 04:49:23;;;;;;;98.30;30.83;;;;;;;5.24;100.00;98443.06;2537370;29;20066;-86
2023/03/20 04:50:38;;;;;;;88.65;30.52;;;;;;;5.25;100.00;98441.31;2537484;29;20063;-81
2023/03/20 04:51:55;;;;;;;86.78;30.58;;;;;;;5.27;100.00;98447.38;2537169;29;20059;-83
2023/03/20 04:53:10;;;;;;;76.75;29.00;;;;;;;5.23;100.00;98441.31;2536825;29;20080;-82
2023/03/20 04:54:26;;;;;;;79.80;29.13;;;;;;;5.15;100.00;98451.75;2536822;29;20044;-82
2023/03/20 04:55:43;;;;;;;84.68;29.65;;;;;;;5.31;100.00;98449.94;2537134;29;20063;-84
2023/03/20 04:56:59;;;;;;;84.18;30.67;;;;;;;5.16;100.00;98450.03;2536962;29;20139;-81
2023/03/20 04:58:15;;;;;;;88.15;30.63;;;;;;;5.08;100.00;98445.75;2536328;29;20052;-82
2023/03/20 04:59:30;;;;;;;78.22;30.33;;;;;;;5.11;100.00;98441.44;2537102;29;20415;-87
2023/03/20 05:00:46;;;;;;;80.32;29.55;;;;;;;4.98;100.00;98441.50;2537364;29;20123;-83
2023/03/20 05:02:02;;;;;;;79.25;27.48;;;;;;;5.03;100.00;98438.84;2536017;29;20056;-83
2023/03/20 05:03:17;;;;;;;71.15;29.00;;;;;;;5.01;100.00;98446.66;2537276;29;20595;-82
2023/03/20 05:04:33;;;;;;;67.90;28.23;;;;;;;5.10;100.00;98445.75;2536908;29;20115;-84
2023/03/20 05:05:48;;;;;;;83.57;29.65;;;;;;;5.15;100.00;98443.97;2537226;29;20052;-82
2023/03/20 05:07:05;;;;;;;75.38;29.73;;;;;;;5.28;100.00;98449.09;2537136;29;20534;-83
2023/03/20 05:08:20;;;;;;;78.28;28.50;;;;;;;5.23;100.00;98450.00;2536745;29;20074;-82
2023/03/20 05:09:36;;;;;;;71.68;27.83;;;;;;;5.34;100.00;98455.09;2537249;29;20048;-82
2023/03/20 05:10:51;;;;;;;75.03;28.73;;;;;;;5.42;100.00;98451.59;2537001;29;20432;-85
2023/03/20 05:12:08;;;;;;;71.25;27.70;;;;;;;5.37;100.00;98456.81;2536733;29;20049;-83
2023/03/20 05:13:24;;;;;;;82.38;29.40;;;;;;;5.57;100.00;98450.63;2537187;29;20424;-81
2023/03/20 05:14:40;;;;;;;73.50;28.88;;;;;;;5.89;100.00;98446.91;2536445;29;20052;-82
2023/03/20 05:15:55;;;;;;;81.70;28.45;;;;;;;6.03;100.00;98450.28;2537302;29;20147;-84
2023/03/20 05:17:11;;;;;;;92.63;29.58;;;;;;;5.71;100.00;98451.38;2536996;29;20055;-83
2023/03/20 05:18:27;;;;;;;150.43;31.35;;;;;;;5.84;100.00;98449.53;2537213;29;20052;-81
2023/03/20 05:19:43;;;;;;;132.20;30.98;;;;;;;5.87;100.00;98448.66;2537320;29;20700;-81
2023/03/20 05:21:00;;;;;;;78.55;27.02;;;;;;;5.99;100.00;98448.53;2536348;29;20067;-81
2023/03/20 05:22:18;;;;;;;72.50;27.05;;;;;;;6.12;100.00;98446.72;2536588;29;20551;-89
2023/03/20 05:23:34;;;;;;;63.40;26.95;;;;;;;6.20;100.00;98447.50;2536114;29;20087;-83
2023/03/20 05:24:50;;;;;;;136.35;29.70;;;;;;;6.16;100.00;98450.16;2536869;29;20091;-83
2023/03/20 05:26:06;;;;;;;145.35;30.63;;;;;;;6.08;100.00;98452.84;2537265;29;20055;-82
2023/03/20 05:27:21;;;;;;;161.07;30.63;;;;;;;6.15;100.00;98451.88;2536620;29;20048;-81
2023/03/20 05:28:37;;;;;;;106.15;27.58;;;;;;;6.27;100.00;98450.88;2536944;29;20557;-82
2023/03/20 05:29:53;;;;;;;158.48;31.10;;;;;;;6.36;100.00;98449.97;2536784;29;20059;-81
2023/03/20 05:31:08;;;;;;;69.45;25.42;;;;;;;6.39;100.00;98455.13;2537040;29;20044;-81
2023/03/20 05:32:24;;;;;;;81.20;26.80;;;;;;;6.34;100.00;98447.34;2537138;29;20198;-81
2023/03/20 05:33:39;;;;;;;104.10;27.00;;;;;;;6.43;100.00;98453.34;2536709;29;20051;-84
2023/03/20 05:34:55;;;;;;;125.95;30.00;;;;;;;6.46;100.00;98450.72;2526213;29;20083;-81
2023/03/20 05:36:11;;;;;;;103.03;28.90;;;;;;;6.49;100.00;98446.31;2530685;29;20530;-81
2023/03/20 05:37:26;;;;;;;121.32;28.30;;;;;;;6.52;100.00;98455.81;2536808;29;20056;-83
2023/03/20 05:38:42;;;;;;;100.82;26.70;;;;;;;6.43;100.00;98462.00;2536884;29;20048;-82
2023/03/20 05:39:58;;;;;;;88.10;28.58;;;;;;;6.42;100.00;98462.88;2536927;29;20052;-82
2023/03/20 05:41:13;;;;;;;103.80;25.55;;;;;;;6.45;100.00;98470.63;2536783;29;20044;-82
2023/03/20 05:42:29;;;;;;;62.13;24.35;;;;;;;6.41;100.00;98465.47;2536401;29;20054;-82
2023/03/20 05:43:45;;;;;;;59.88;24.25;;;;;;;6.21;100.00;98466.56;2536470;29;20060;-82
2023/03/20 05:45:00;;;;;;;59.38;25.25;;;;;;;6.34;100.00;98469.88;2536643;29;20048;-81
2023/03/20 05:46:16;;;;;;;55.92;24.08;;;;;;;6.45;100.00;98469.78;2536917;29;20048;-81
2023/03/20 05:47:32;;;;;;;59.38;25.63;;;;;;;6.55;100.00;98468.78;2536720;29;20485;-82
2023/03/20 05:48:48;;;;;;;66.53;24.42;;;;;;;6.50;100.00;98468.88;2537496;29;21468;-82
2023/03/20 05:50:03;;;;;;;66.43;25.20;;;;;;;6.49;100.00;98471.47;2536286;29;20323;-82
2023/03/20 05:51:19;;;;;;;78.65;25.40;;;;;;;6.59;100.00;98480.91;2536928;29;20062;-81
2023/03/20 05:52:35;;;;;;;81.15;25.25;;;;;;;6.64;100.00;98483.47;2537118;29;20056;-81
2023/03/20 05:53:50;;;;;;;83.60;26.48;;;;;;;6.33;100.00;98483.78;2536797;29;20056;-82
2023/03/20 05:55:06;;;;;;;54.75;24.80;;;;;;;6.41;100.00;98488.88;2526725;29;20052;-81
2023/03/20 05:56:22;;;;;;;156.90;27.92;;;;;;;6.38;100.00;98484.59;2530334;29;20048;-82
2023/03/20 05:57:37;;;;;;;120.40;26.90;;;;;;;6.53;100.00;98485.31;2537201;29;20079;-82
2023/03/20 05:58:53;;;;;;;93.18;25.77;;;;;;;6.58;100.00;98489.59;2536690;29;20563;-82
2023/03/20 06:00:09;;;;;;;97.13;25.38;;;;;;;6.61;100.00;98484.34;2534883;29;20052;-82
2023/03/20 06:01:25;;;;;;;88.55;25.38;;;;;;;6.69;100.00;98480.78;2536654;29;20075;-81
2023/03/20 06:02:41;;;;;;;60.13;25.38;;;;;;;6.65;100.00;98490.38;2536739;29;20060;-84
2023/03/20 06:03:56;;;;;;;68.03;25.33;;;;;;;6.52;100.00;98481.84;2536759;29;20052;-82
2023/03/20 06:05:12;;;;;;;63.88;26.05;;;;;;;6.45;100.00;98493.19;2536638;29;20451;-83
2023/03/20 06:06:28;;;;;;;60.22;25.85;;;;;;;6.38;100.00;98483.72;2536664;29;20056;-83
2023/03/20 06:07:43;;;;;;;85.95;25.40;;;;;;;6.49;100.00;98495.72;2536745;29;20048;-82